This is the latest recevied weather packets stored in our database for station/object N5SOR-1. If no packets are shown the sender has not sent any weather packets the latest 10 day(s).
| Time | Temp. | Humidity | Pressure | Rain* | Wind** | Luminosity | Snow |
|---|---|---|---|---|---|---|---|
| 1777742343 | 15.56° C | 49% | 1026.9 hPa | 0 mm | - | 802 W/m² | - |
| 1777741682 | 15° C | 51% | 1026.8 hPa | 0 mm | - | 336 W/m² | - |
| 1777741021 | 15° C | 54% | 1027 hPa | 0 mm | - | 137 W/m² | - |
| 1777740361 | 14.44° C | 56% | 1027.1 hPa | 0 mm | - | 93 W/m² | - |
| 1777739700 | 14.44° C | 55% | 1027.1 hPa | 0 mm | - | 95 W/m² | - |
| 1777739040 | 13.89° C | 55% | 1026.9 hPa | 0 mm | - | 471 W/m² | - |
| 1777738379 | 13.89° C | 58% | 1026.9 hPa | 0 mm | - | 44 W/m² | - |
| 1777737718 | 13.33° C | 61% | 1026.8 hPa | 0 mm | - | 105 W/m² | - |
| 1777737058 | 13.33° C | 60% | 1026.9 hPa | 0 mm | - | 104 W/m² | - |
| 1777736397 | 13.33° C | 62% | 1026.9 hPa | 0 mm | - | 76 W/m² | - |
| 1777735737 | 12.78° C | 60% | 1026.6 hPa | 0 mm | - | 42 W/m² | - |
| 1777735076 | 12.22° C | 61% | 1026.7 hPa | 0 mm | - | 155 W/m² | - |
| 1777734415 | 12.22° C | 61% | 1026.8 hPa | 0 mm | - | 408 W/m² | - |
| 1777733755 | 11.67° C | 62% | 1026.7 hPa | 0 mm | - | 390 W/m² | - |
| 1777733094 | 12.22° C | 62% | 1026.9 hPa | 0 mm | - | 35 W/m² | - |
| 1777732434 | 11.67° C | 61% | 1026.7 hPa | 0 mm | - | 33 W/m² | - |
| 1777731773 | 11.11° C | 63% | 1026.8 hPa | 0 mm | - | 32 W/m² | - |
| 1777731112 | 11.11° C | 63% | 1026.7 hPa | 0 mm | - | 32 W/m² | - |
| 1777730452 | 11.11° C | 63% | 1026.6 hPa | 0 mm | - | 142 W/m² | - |
| 1777729791 | 10.56° C | 65% | 1026.5 hPa | 0 mm | - | 114 W/m² | - |
| 1777729130 | 10° C | 66% | 1026.3 hPa | 0 mm | - | 33 W/m² | - |
| 1777728470 | 10° C | 75% | 1026.1 hPa | 0 mm | - | 26 W/m² | - |
| 1777727809 | 9.44° C | 77% | 1025.9 hPa | 0 mm | - | 26 W/m² | - |
| 1777727149 | 8.89° C | 81% | 1025.8 hPa | 0 mm | - | 23 W/m² | - |
| 1777726488 | 8.33° C | 82% | 1025.5 hPa | 0 mm | - | 23 W/m² | - |
* Rain latest hour (hover to see other rain measurements)
** Current wind speed in m/s (hover to see current wind gust speed)